Time;durP1;ratioP1;P1;durP2;ratioP2;P2;SDS_P1;SDS_P2;PMS_P1;PMS_P2;Temp;Humidity;BMP_temperature;BMP_pressure;BME280_temperature;BME280_humidity;BME280_pressure;Samples;Min_cycle;Max_cycle;Signal;HPM_P1;HPM_P2
2022/04/23 00:04:09;;;;;;;2.67;2.38;;;;;;;19.87;45.33;95913.25;10304916;28;20052;-56
2022/04/23 00:09:29;;;;;;;2.25;2.05;;;;;;;19.87;45.47;95905.13;10327681;28;20047;-56
2022/04/23 00:14:50;;;;;;;2.63;2.30;;;;;;;19.86;45.45;95906.28;10325883;28;20069;-56
2022/04/23 00:20:12;;;;;;;2.47;2.28;;;;;;;19.85;45.31;95896.59;10322757;28;20059;-56
2022/04/23 00:25:32;;;;;;;54.58;3.60;;;;;;;19.83;45.25;95899.63;10330764;28;20460;-56
2022/04/23 00:30:52;;;;;;;21.25;2.70;;;;;;;19.82;45.27;95900.78;10315251;28;20069;-56
2022/04/23 00:36:12;;;;;;;4.53;2.30;;;;;;;19.81;45.16;95898.44;10322853;28;20113;-56
2022/04/23 00:41:45;;;;;;;2.40;2.20;;;;;;;19.79;45.12;95904.16;10316704;28;20390;-56
2022/04/23 00:47:05;;;;;;;3.88;2.33;;;;;;;19.79;45.25;95903.38;10326769;28;20128;-55
2022/04/23 00:52:25;;;;;;;2.65;2.20;;;;;;;19.79;45.05;95898.00;10329036;28;20054;-55
2022/04/23 00:57:45;;;;;;;2.45;2.25;;;;;;;19.77;45.24;95894.84;10319756;28;20058;-55
2022/04/23 01:03:05;;;;;;;2.75;2.17;;;;;;;19.76;45.17;95888.66;10330196;28;20509;-55
2022/04/23 01:08:27;;;;;;;2.72;2.10;;;;;;;19.75;45.05;95887.09;10326923;28;20081;-56
2022/04/23 01:13:47;;;;;;;2.40;2.20;;;;;;;19.75;45.12;95884.38;10322370;28;20062;-56
2022/04/23 01:19:06;;;;;;;2.45;2.00;;;;;;;19.74;45.05;95877.41;10319531;28;20051;-56
2022/04/23 01:24:27;;;;;;;2.15;1.95;;;;;;;19.72;45.07;95875.06;10323911;28;20070;-55
2022/04/23 01:29:46;;;;;;;3.35;1.88;;;;;;;19.72;45.02;95871.59;10321047;28;20050;-56
2022/04/23 01:35:06;;;;;;;2.35;2.15;;;;;;;19.71;45.06;95878.06;10329019;28;20054;-55
2022/04/23 01:40:25;;;;;;;2.40;2.20;;;;;;;19.71;45.00;95872.66;10331681;28;20043;-55
2022/04/23 01:45:44;;;;;;;4.78;2.17;;;;;;;19.70;44.98;95871.13;10320828;28;20065;-56
2022/04/23 01:51:04;;;;;;;2.45;2.17;;;;;;;19.68;44.83;95876.84;10299533;28;20548;-55
2022/04/23 01:56:25;;;;;;;2.38;2.00;;;;;;;19.67;44.81;95874.50;10309790;28;20061;-56
2022/04/23 02:01:45;;;;;;;2.03;1.90;;;;;;;19.67;44.80;95885.31;10321154;28;20051;-55
2022/04/23 02:07:04;;;;;;;2.33;2.13;;;;;;;19.66;44.84;95891.81;10329333;28;20050;-56
2022/04/23 02:12:24;;;;;;;2.28;2.00;;;;;;;19.65;44.71;95887.56;10311880;28;20539;-56
2022/04/23 02:17:44;;;;;;;2.00;1.90;;;;;;;19.64;44.79;95894.09;10320161;28;20058;-56
2022/04/23 02:23:04;;;;;;;2.17;2.00;;;;;;;19.63;44.68;95896.00;10314004;28;20050;-56
2022/04/23 02:28:24;;;;;;;2.28;2.08;;;;;;;19.61;44.63;95892.09;10318368;28;20073;-55
2022/04/23 02:33:44;;;;;;;1.98;1.80;;;;;;;19.61;44.84;95892.09;10319535;28;20394;-55
2022/04/23 02:39:03;;;;;;;2.30;2.10;;;;;;;19.60;44.73;95890.50;10321154;28;20613;-56
2022/04/23 02:44:23;;;;;;;2.10;1.90;;;;;;;19.59;44.70;95889.72;10331287;28;20050;-56
2022/04/23 02:49:43;;;;;;;1.90;1.80;;;;;;;19.58;44.49;95876.56;10332427;28;20572;-56
2022/04/23 02:55:05;;;;;;;2.10;1.90;;;;;;;19.57;44.58;95889.28;10346977;28;20050;-55
2022/04/23 03:00:24;;;;;;;2.03;1.83;;;;;;;19.57;44.56;95892.00;10330618;28;20062;-56
2022/04/23 03:05:43;;;;;;;2.05;1.85;;;;;;;19.55;44.54;95896.97;10332130;28;20054;-55
2022/04/23 03:11:05;;;;;;;2.15;1.90;;;;;;;19.54;44.49;95895.38;10332558;28;20058;-55
2022/04/23 03:16:26;;;;;;;1.88;1.77;;;;;;;19.53;44.49;95896.53;10327241;28;20043;-56
2022/04/23 03:21:46;;;;;;;2.15;1.90;;;;;;;19.52;44.47;95898.44;10310351;28;20107;-55
2022/04/23 03:27:06;;;;;;;1.98;1.80;;;;;;;19.51;44.39;95899.56;10304487;28;20051;-56
2022/04/23 03:32:26;;;;;;;2.63;2.10;;;;;;;19.51;44.49;95910.38;10332149;28;20042;-56
2022/04/23 03:37:47;;;;;;;2.00;1.90;;;;;;;19.49;44.40;95907.22;10314849;28;20054;-56
2022/04/23 03:43:06;;;;;;;2.33;1.80;;;;;;;19.49;44.33;95901.81;10308829;28;20520;-56
2022/04/23 03:48:26;;;;;;;2.00;1.80;;;;;;;19.46;44.21;95905.22;10322100;28;20072;-56
2022/04/23 03:53:45;;;;;;;2.42;1.80;;;;;;;19.46;44.26;95915.22;10310613;28;20054;-56
2022/04/23 03:59:07;;;;;;;31.52;2.50;;;;;;;19.46;44.42;95917.94;10328251;28;20509;-55
2022/04/23 04:04:26;;;;;;;2.00;1.80;;;;;;;19.45;44.31;95922.56;10324406;28;20501;-55
2022/04/23 04:09:46;;;;;;;1.85;1.75;;;;;;;19.43;44.29;95919.41;10330610;28;20417;-56
2022/04/23 04:15:07;;;;;;;2.00;1.80;;;;;;;19.43;44.24;95919.41;10305875;28;20101;-56
2022/04/23 04:20:29;;;;;;;1.90;1.80;;;;;;;19.42;44.18;95923.22;10326574;28;20061;-55
2022/04/23 04:25:48;;;;;;;2.10;1.90;;;;;;;19.41;44.07;95918.97;10343724;28;20494;-56
2022/04/23 04:36:47;;;;;;;1.73;1.63;;;;;;;19.40;44.16;95922.78;10319221;28;20046;-56
2022/04/23 04:42:08;;;;;;;1.80;1.70;;;;;;;19.39;44.16;95918.53;10349670;28;20046;-56
2022/04/23 04:47:27;;;;;;;1.83;1.73;;;;;;;19.39;44.02;95918.53;10348898;28;20058;-55
2022/04/23 04:52:47;;;;;;;1.85;1.75;;;;;;;19.40;43.92;95930.91;10354734;28;20389;-56
2022/04/23 04:58:06;;;;;;;1.80;1.70;;;;;;;19.40;44.06;95930.13;10360522;28;20046;-56
2022/04/23 05:03:26;;;;;;;2.05;1.70;;;;;;;19.41;44.12;95943.28;10344794;28;20042;-55
2022/04/23 05:08:46;;;;;;;2.00;1.90;;;;;;;19.42;44.05;95947.53;10349829;28;20035;-56
2022/04/23 05:14:06;;;;;;;1.75;1.55;;;;;;;19.44;44.20;95945.28;10342757;28;20054;-56
2022/04/23 05:19:25;;;;;;;1.60;1.50;;;;;;;19.45;43.95;95952.28;10346634;28;20069;-56
2022/04/23 05:24:45;;;;;;;2.03;1.83;;;;;;;19.48;44.04;95959.69;10341779;28;20043;-55
2022/04/23 05:30:05;;;;;;;2.20;1.80;;;;;;;19.49;44.23;95976.69;10317899;28;20050;-56
2022/04/23 05:35:25;;;;;;;2.78;1.85;;;;;;;19.50;44.29;95979.06;10317061;28;20050;-57
2022/04/23 05:40:45;;;;;;;2.00;1.75;;;;;;;19.51;44.43;95987.94;10334405;28;20050;-56
2022/04/23 05:46:04;;;;;;;2.05;1.70;;;;;;;19.53;44.50;95980.28;10317315;28;20046;-57
2022/04/23 05:51:24;;;;;;;1.70;1.60;;;;;;;19.53;44.51;95981.06;10325876;28;20050;-56
2022/04/23 05:56:43;;;;;;;1.65;1.50;;;;;;;19.56;44.67;95988.47;10319890;28;20064;-56
2022/04/23 06:02:03;;;;;;;1.67;1.58;;;;;;;19.59;44.55;95997.81;10324823;28;20046;-56
2022/04/23 06:07:22;;;;;;;1.80;1.70;;;;;;;19.61;44.65;96011.75;10303262;28;20054;-56
2022/04/23 06:12:42;;;;;;;1.65;1.55;;;;;;;19.63;44.69;96006.78;10307045;28;20065;-56
2022/04/23 06:18:01;;;;;;;1.80;1.70;;;;;;;19.65;44.69;95999.13;10317836;28;20441;-56
2022/04/23 06:23:21;;;;;;;1.70;1.60;;;;;;;19.68;44.63;95995.75;10320123;28;20061;-56
2022/04/23 06:28:40;;;;;;;1.83;1.73;;;;;;;19.71;44.57;96005.88;10320737;28;20104;-55
2022/04/23 06:33:59;;;;;;;1.90;1.70;;;;;;;19.73;44.65;96010.94;10333101;28;20108;-56
2022/04/23 06:39:19;;;;;;;6.78;6.15;;;;;;;19.58;39.20;96012.44;10320772;28;20061;-58
2022/04/23 06:44:39;;;;;;;8.68;7.80;;;;;;;19.11;35.44;96016.50;10335970;28;20061;-58
2022/04/23 06:49:59;;;;;;;9.18;7.45;;;;;;;18.27;34.47;96013.41;10334432;28;20046;-59
2022/04/23 06:55:18;;;;;;;9.88;8.38;;;;;;;-25.49;34.47;99445.69;10322138;28;20133;-57
2022/04/23 07:00:40;;;;;;;8.63;7.75;;;;;;;18.09;34.98;96005.53;10320565;28;20049;-59
2022/04/23 07:05:59;;;;;;;8.75;7.82;;;;;;;18.13;34.65;96011.81;10327638;28;20046;-59
2022/04/23 07:11:18;;;;;;;8.63;7.82;;;;;;;18.18;35.00;96014.28;10341833;28;20089;-59
2022/04/23 07:16:39;;;;;;;7.93;7.22;;;;;;;17.81;35.63;96012.59;10349429;28;20089;-57
2022/04/23 07:21:59;;;;;;;8.98;8.07;;;;;;;-146.19;100.00;65364.44;10335263;28;20052;-57
2022/04/23 07:27:21;;;;;;;7.32;6.60;;;;;;;18.19;36.69;96012.41;10340821;28;20051;-56
2022/04/23 07:32:40;;;;;;;5.72;5.00;;;;;;;18.58;37.62;96011.00;10347392;28;20069;-57
2022/04/23 07:38:10;;;;;;;5.80;5.03;;;;;;;18.86;37.58;96014.97;10340665;28;20047;-58
2022/04/23 07:43:30;;;;;;;5.47;4.97;;;;;;;19.02;37.74;96007.72;10319689;28;20050;-57
2022/04/23 07:48:50;;;;;;;8.48;7.47;;;;;;;19.05;35.79;96015.16;10328051;28;20447;-57
2022/04/23 07:54:10;;;;;;;5.32;4.82;;;;;;;19.12;36.87;96007.25;10332126;28;20480;-58
2022/04/23 07:59:29;;;;;;;5.10;4.60;;;;;;;19.21;37.68;96009.84;10333298;28;20464;-55
2022/04/23 08:04:49;;;;;;;5.80;4.85;;;;;;;19.27;37.90;96003.09;10333988;28;20050;-56
2022/04/23 08:10:09;;;;;;;10.70;4.57;;;;;;;19.36;37.97;96000.25;10321302;28;20061;-56
2022/04/23 08:15:29;;;;;;;4.95;4.50;;;;;;;19.42;38.05;96004.25;10330492;28;20422;-57
2022/04/23 08:20:48;;;;;;;7.80;6.10;;;;;;;19.46;36.22;96002.44;10323996;28;20077;-56
2022/04/23 08:26:08;;;;;;;7.28;6.57;;;;;;;19.33;34.78;96000.94;10319751;28;20069;-56
2022/04/23 08:31:28;;;;;;;6.85;5.88;;;;;;;19.29;34.48;95990.03;10325316;28;20049;-56
2022/04/23 08:36:50;;;;;;;9.20;7.63;;;;;;;19.20;33.75;95991.28;10320806;28;20054;-56
2022/04/23 08:42:09;;;;;;;11.25;8.10;;;;;;;19.21;34.45;95976.66;10330347;28;20046;-55
2022/04/23 08:47:31;;;;;;;50.20;14.70;;;;;;;19.22;34.48;95978.22;10329244;28;20054;-56
2022/04/23 08:52:56;;;;;;;57.97;17.75;;;;;;;19.25;33.90;95974.81;10330086;28;20046;-55
2022/04/23 08:58:15;;;;;;;31.08;13.40;;;;;;;19.24;34.11;95979.44;10344409;28;20046;-57
2022/04/23 09:03:35;;;;;;;22.42;9.90;;;;;;;19.30;34.48;95967.28;10329820;28;20489;-56
2022/04/23 09:09:08;;;;;;;15.82;8.48;;;;;;;19.36;34.06;95970.53;10314467;28;20049;-57
2022/04/23 09:14:32;;;;;;;9.57;5.93;;;;;;;19.35;33.91;95960.88;10329434;28;20050;-57
2022/04/23 09:25:35;;;;;;;5.53;5.03;;;;;;;19.39;33.66;95963.66;10328817;28;20042;-57
2022/04/23 09:30:55;;;;;;;5.88;5.03;;;;;;;19.44;33.80;95958.00;10340382;28;20406;-56
2022/04/23 09:36:15;;;;;;;5.10;4.70;;;;;;;19.50;33.95;95968.25;10321695;28;20062;-57
2022/04/23 09:41:36;;;;;;;5.93;4.45;;;;;;;19.55;33.71;95957.19;10319446;28;20069;-58
2022/04/23 09:46:56;;;;;;;5.13;4.63;;;;;;;19.60;32.94;95949.94;10320425;28;20051;-59
2022/04/23 09:52:15;;;;;;;5.30;4.53;;;;;;;19.64;33.66;95945.44;10313601;28;20528;-56
2022/04/23 09:57:35;;;;;;;5.15;4.65;;;;;;;19.67;33.29;95952.84;10321336;28;20061;-56
2022/04/23 10:02:59;;;;;;;4.93;4.53;;;;;;;19.69;32.66;95947.88;10331804;28;20046;-58
2022/04/23 10:08:23;;;;;;;5.78;5.18;;;;;;;19.72;33.39;95944.53;10327077;28;20474;-58
2022/04/23 10:13:46;;;;;;;4.78;3.97;;;;;;;19.77;34.31;95949.69;10309581;28;20051;-57
2022/04/23 10:19:07;;;;;;;5.70;4.43;;;;;;;19.81;35.38;95934.34;10317186;28;20046;-57
2022/04/23 10:24:39;;;;;;;5.90;4.88;;;;;;;19.87;33.68;95938.34;10311703;28;20524;-57
2022/04/23 10:30:02;;;;;;;6.80;6.20;;;;;;;19.89;32.94;95941.50;10315383;28;20062;-60
2022/04/23 10:35:21;;;;;;;7.45;5.65;;;;;;;19.89;32.35;95935.31;10318732;28;20055;-55
2022/04/23 10:40:41;;;;;;;5.00;4.50;;;;;;;19.93;34.32;95939.69;10321815;28;20614;-58
2022/04/23 10:46:04;;;;;;;4.53;3.70;;;;;;;19.95;34.94;95937.44;10326007;28;20050;-60
2022/04/23 10:51:23;;;;;;;5.10;4.70;;;;;;;20.00;33.87;95936.38;10321969;28;20477;-57
2022/04/23 10:56:44;;;;;;;4.63;3.97;;;;;;;20.08;33.37;95926.53;10332671;28;20470;-57
2022/04/23 11:02:06;;;;;;;5.57;3.83;;;;;;;20.13;32.74;95920.84;10319120;28;20104;-56
2022/04/23 11:13:24;;;;;;;6.43;3.60;;;;;;;20.18;32.13;95919.81;10336093;28;20050;-57
2022/04/23 11:18:45;;;;;;;3.97;2.80;;;;;;;20.19;33.03;95913.25;10327390;28;20088;-55
2022/04/23 11:24:06;;;;;;;3.33;2.72;;;;;;;20.17;33.57;95905.50;10328782;28;20049;-50
2022/04/23 11:29:27;;;;;;;2.90;2.65;;;;;;;20.19;34.17;95892.44;10326505;28;20054;-53
2022/04/23 11:34:58;;;;;;;4.30;3.90;;;;;;;20.24;33.61;95899.47;10343236;28;20478;-56
2022/04/23 11:40:17;;;;;;;4.95;3.45;;;;;;;20.28;32.33;95887.59;10321913;28;20051;-58
2022/04/23 11:45:45;;;;;;;4.03;3.63;;;;;;;20.32;31.92;95877.66;10331266;28;20050;-57
2022/04/23 11:51:06;;;;;;;5.05;3.63;;;;;;;20.34;31.17;95880.78;10344123;28;20046;-57
2022/04/23 11:56:30;;;;;;;3.65;3.35;;;;;;;20.37;31.03;95878.53;10341223;28;20116;-57
2022/04/23 12:01:49;;;;;;;3.33;3.03;;;;;;;20.39;30.98;95878.97;10357808;28;20118;-56
2022/04/23 12:07:10;;;;;;;3.53;3.00;;;;;;;20.43;31.33;95877.13;10355725;28;20088;-55
2022/04/23 12:12:31;;;;;;;3.35;2.72;;;;;;;20.48;30.95;95868.72;10352327;28;20512;-56
2022/04/23 12:17:54;;;;;;;4.63;2.78;;;;;;;20.52;31.08;95870.38;10333511;28;20185;-50
2022/04/23 12:23:14;;;;;;;2.90;2.70;;;;;;;20.55;30.51;95861.56;10323330;28;20050;-54
2022/04/23 12:45:40;;;;;;;3.25;2.95;;;;;;;20.66;29.21;95855.59;10319368;28;20054;-54
2022/04/23 12:51:07;;;;;;;3.47;2.80;;;;;;;20.64;29.03;95845.16;10327917;28;20034;-54
2022/04/23 12:56:34;;;;;;;3.22;2.90;;;;;;;20.66;29.00;95831.25;10318145;28;20050;-54
2022/04/23 13:01:54;;;;;;;3.17;2.90;;;;;;;20.67;29.44;95830.13;10350817;28;20054;-54
2022/04/23 13:12:52;;;;;;;3.63;2.97;;;;;;;20.74;29.37;95839.19;10317032;28;20512;-54
2022/04/23 13:18:12;;;;;;;3.75;2.90;;;;;;;20.76;29.40;95838.03;10314777;28;20833;-53
2022/04/23 13:23:32;;;;;;;3.50;3.17;;;;;;;20.81;29.36;95832.34;10343279;28;20054;-54
2022/04/23 13:28:51;;;;;;;3.35;3.00;;;;;;;20.82;29.98;95833.94;10317478;28;20054;-53
2022/04/23 13:34:11;;;;;;;6.28;3.05;;;;;;;20.84;29.20;95816.19;10322976;28;20051;-53
2022/04/23 13:39:31;;;;;;;4.93;2.90;;;;;;;20.87;29.45;95814.69;10322753;28;20058;-53
2022/04/23 13:44:51;;;;;;;5.43;3.30;;;;;;;20.89;29.42;95810.47;10319253;28;20050;-53
2022/04/23 13:50:10;;;;;;;3.75;3.00;;;;;;;20.90;30.08;95793.09;10305315;28;20096;-51
2022/04/23 13:55:30;;;;;;;3.55;3.20;;;;;;;20.91;30.22;95794.69;10324771;28;20046;-54
2022/04/23 14:00:49;;;;;;;3.30;3.00;;;;;;;20.90;30.73;95789.63;10320852;28;20056;-53
2022/04/23 14:11:47;;;;;;;2.90;2.53;;;;;;;20.95;29.72;95789.31;10312140;28;20062;-55
2022/04/23 14:17:06;;;;;;;3.22;2.92;;;;;;;20.98;29.42;95775.06;10322369;28;20058;-57
2022/04/23 14:22:26;;;;;;;3.40;2.53;;;;;;;20.99;28.88;95773.13;10321819;28;20050;-55
2022/04/23 14:27:46;;;;;;;2.30;2.10;;;;;;;21.00;30.04;95761.19;10323843;28;20054;-53
2022/04/23 14:33:05;;;;;;;2.55;2.20;;;;;;;20.99;30.31;95760.38;10328846;28;20046;-53
2022/04/23 14:38:25;;;;;;;10.63;4.63;;;;;;;20.98;30.80;95750.69;10327291;28;20061;-51
2022/04/23 14:43:44;;;;;;;3.75;2.72;;;;;;;20.98;30.74;95739.88;10336235;28;20057;-53
2022/04/23 14:49:04;;;;;;;2.20;2.00;;;;;;;21.00;30.29;95742.22;10346519;28;20061;-53
2022/04/23 14:54:23;;;;;;;2.75;2.20;;;;;;;21.01;30.65;95732.94;10335850;28;20583;-54
2022/04/23 14:59:42;;;;;;;2.15;2.00;;;;;;;21.02;30.75;95734.53;10335907;28;20058;-53
2022/04/23 15:05:03;;;;;;;2.10;1.90;;;;;;;21.02;30.47;95735.28;10336619;28;20493;-54
2022/04/23 15:10:22;;;;;;;1.90;1.80;;;;;;;21.04;30.17;95738.44;10333689;28;20050;-53
2022/04/23 15:15:43;;;;;;;1.80;1.70;;;;;;;21.05;30.07;95731.88;10336049;28;20525;-55
2022/04/23 15:21:02;;;;;;;1.92;1.70;;;;;;;21.06;29.80;95719.13;10345769;28;20042;-55
2022/04/23 15:26:22;;;;;;;2.30;2.10;;;;;;;21.07;30.00;95723.38;10328056;28;20445;-54
2022/04/23 15:31:41;;;;;;;3.08;2.40;;;;;;;21.07;29.75;95724.19;10332946;28;20049;-52
2022/04/23 15:37:00;;;;;;;2.38;2.17;;;;;;;21.07;29.59;95718.78;10347818;28;20034;-54
2022/04/23 15:42:20;;;;;;;3.42;2.00;;;;;;;21.06;29.51;95714.47;10325359;28;20127;-54
2022/04/23 15:47:39;;;;;;;2.10;1.90;;;;;;;21.08;28.70;95719.53;10327430;28;20425;-56
2022/04/23 15:52:58;;;;;;;2.38;2.17;;;;;;;21.13;28.02;95727.38;10327998;28;20069;-54
2022/04/23 15:58:18;;;;;;;3.97;1.80;;;;;;;21.16;28.56;95729.34;10326576;28;20056;-54
2022/04/23 16:03:37;;;;;;;17.35;13.93;;;;;;;21.13;30.08;95724.66;10318453;28;20508;-53
2022/04/23 16:08:57;;;;;;;17.60;14.38;;;;;;;21.13;32.48;95716.53;10332542;28;20034;-55
2022/04/23 16:14:17;;;;;;;29.80;19.92;;;;;;;21.17;34.85;95719.28;10330704;28;20416;-56
2022/04/23 16:19:36;;;;;;;12.32;8.82;;;;;;;21.19;31.22;95715.09;10319741;28;20050;-54
2022/04/23 16:24:56;;;;;;;8.15;5.53;;;;;;;21.22;29.99;95716.28;10330440;28;20062;-54
2022/04/23 16:30:16;;;;;;;3.72;3.28;;;;;;;21.23;28.28;95713.22;10325846;28;20409;-55
2022/04/23 16:35:36;;;;;;;3.08;2.38;;;;;;;21.22;27.35;95710.88;10328541;28;20097;-57
2022/04/23 16:51:57;;;;;;;58.72;6.40;;;;;;;21.18;26.38;95704.63;10330006;28;20121;-50
2022/04/23 16:57:16;;;;;;;5.10;3.08;;;;;;;21.13;26.33;95711.91;10341208;28;20042;-47
2022/04/23 17:02:36;;;;;;;2.80;2.17;;;;;;;21.08;26.18;95712.19;10333360;28;20112;-48
2022/04/23 17:07:56;;;;;;;2.22;1.90;;;;;;;21.04;25.69;95707.88;10331001;28;20397;-49
2022/04/23 17:13:15;;;;;;;2.13;1.80;;;;;;;20.99;26.39;95702.75;10322559;28;20047;-48
2022/04/23 17:18:35;;;;;;;3.35;1.95;;;;;;;21.00;28.80;95698.91;10323462;28;20062;-48
2022/04/23 17:23:55;;;;;;;2.85;2.03;;;;;;;21.02;29.31;95702.81;10328852;28;20054;-47
2022/04/23 17:29:15;;;;;;;2.33;2.00;;;;;;;21.02;29.48;95694.69;10325281;28;20105;-47
2022/04/23 17:34:36;;;;;;;1.90;1.70;;;;;;;21.03;30.18;95698.97;10332342;28;20061;-48
2022/04/23 17:39:56;;;;;;;2.97;2.15;;;;;;;21.04;30.35;95694.31;10324430;28;20062;-50
2022/04/23 17:45:15;;;;;;;6.07;2.70;;;;;;;21.04;31.18;95700.53;10344216;28;20050;-49
2022/04/23 17:50:38;;;;;;;5.55;2.83;;;;;;;21.06;32.31;95700.16;10342593;28;20069;-47
2022/04/23 17:55:57;;;;;;;6.20;3.10;;;;;;;21.08;33.22;95695.16;10324118;28;20578;-48
2022/04/23 18:12:41;;;;;;;9.85;5.25;;;;;;;21.12;35.98;95701.44;10313804;28;20117;-47
2022/04/23 18:18:01;;;;;;;8.95;4.35;;;;;;;21.13;35.72;95700.31;10358199;28;20035;-50
2022/04/23 18:23:21;;;;;;;10.25;4.50;;;;;;;21.11;35.41;95700.66;10329211;28;20054;-50
2022/04/23 18:28:41;;;;;;;11.70;4.10;;;;;;;21.12;35.17;95707.63;10323663;28;20051;-47
2022/04/23 18:34:00;;;;;;;5.72;3.05;;;;;;;21.12;32.63;95712.25;10329266;28;20513;-48
2022/04/23 18:39:20;;;;;;;4.78;3.33;;;;;;;21.11;33.47;95710.69;10327852;28;20046;-48
2022/04/23 18:44:39;;;;;;;4.22;3.22;;;;;;;21.07;34.04;95707.94;10313995;28;20526;-48
2022/04/23 18:50:00;;;;;;;5.70;3.15;;;;;;;21.05;34.06;95723.75;10321831;28;20137;-48
2022/04/23 18:55:19;;;;;;;6.32;3.13;;;;;;;21.05;34.39;95712.13;10324479;28;20081;-50
2022/04/23 19:00:54;;;;;;;3.95;2.97;;;;;;;21.04;34.45;95722.19;10327449;28;20054;-50
2022/04/23 19:06:15;;;;;;;4.78;2.75;;;;;;;21.04;34.55;95727.59;10327179;28;20428;-50
2022/04/23 19:11:37;;;;;;;4.50;2.70;;;;;;;21.04;34.71;95727.59;10350021;28;20046;-48
2022/04/23 19:16:56;;;;;;;5.63;3.03;;;;;;;21.04;34.87;95733.00;10324760;28;20133;-49
2022/04/23 19:28:01;;;;;;;3.90;2.70;;;;;;;21.02;35.42;95719.06;10332771;28;20056;-50
2022/04/23 19:33:20;;;;;;;44.17;3.72;;;;;;;21.01;35.35;95722.91;10348148;28;20042;-48
2022/04/23 19:38:41;;;;;;;3.95;2.78;;;;;;;21.00;35.47;95718.63;10333120;28;20050;-48
2022/04/23 19:44:01;;;;;;;6.50;3.08;;;;;;;21.01;35.50;95711.28;10333147;28;20078;-48
2022/04/23 19:49:22;;;;;;;4.65;2.53;;;;;;;20.98;35.60;95707.38;10321634;28;20547;-48
2022/04/23 19:54:43;;;;;;;6.03;2.60;;;;;;;20.99;35.75;95700.03;10348061;28;20129;-48
2022/04/23 20:00:06;;;;;;;4.95;2.40;;;;;;;20.97;35.79;95700.38;10336242;28;20050;-51
2022/04/23 20:05:33;;;;;;;4.75;2.67;;;;;;;20.95;35.91;95691.84;10334327;28;20042;-48
2022/04/23 20:10:52;;;;;;;5.47;2.40;;;;;;;20.95;35.86;95699.97;10334452;28;20056;-48
2022/04/23 20:16:12;;;;;;;5.28;2.58;;;;;;;20.94;36.05;95695.72;10328971;28;20058;-47
2022/04/23 20:21:33;;;;;;;5.88;2.22;;;;;;;20.95;35.91;95702.66;10329068;28;20129;-49
2022/04/23 20:26:53;;;;;;;4.35;2.35;;;;;;;20.93;35.93;95694.13;10330874;28;20412;-49
2022/04/23 20:32:12;;;;;;;4.28;2.35;;;;;;;20.93;36.28;95696.84;10314570;28;20773;-48
2022/04/23 20:43:10;;;;;;;2.63;2.10;;;;;;;20.88;36.54;95703.34;10336432;28;20081;-48
2022/04/23 20:48:30;;;;;;;4.43;2.40;;;;;;;20.89;36.64;95702.19;10356357;28;20159;-49
2022/04/23 20:53:50;;;;;;;4.38;2.13;;;;;;;20.88;36.72;95700.63;10345948;28;20042;-50
2022/04/23 20:59:13;;;;;;;3.97;2.17;;;;;;;20.86;36.85;95704.84;10330654;28;20058;-50
2022/04/23 21:04:33;;;;;;;3.13;2.30;;;;;;;20.86;36.86;95699.44;10332690;28;20053;-48
2022/04/23 21:09:52;;;;;;;5.68;2.40;;;;;;;20.85;36.97;95697.84;10332752;28;20137;-48
2022/04/23 21:15:12;;;;;;;3.95;2.80;;;;;;;20.84;37.04;95690.88;10332736;28;20532;-47
2022/04/23 21:20:32;;;;;;;6.32;2.33;;;;;;;20.83;37.24;95683.91;10326747;28;20058;-48
2022/04/23 21:25:54;;;;;;;2.67;2.15;;;;;;;20.82;37.42;95680.41;10328069;28;20520;-48
2022/04/23 21:31:13;;;;;;;3.88;2.40;;;;;;;20.82;37.25;95677.72;10341232;28;20421;-48
2022/04/23 21:36:33;;;;;;;2.78;2.10;;;;;;;20.82;37.31;95674.22;10326508;28;20050;-49
2022/04/23 21:47:31;;;;;;;4.50;2.33;;;;;;;20.81;37.42;95667.22;10321514;28;20051;-48
2022/04/23 21:52:52;;;;;;;4.88;2.55;;;;;;;20.79;37.47;95658.69;10322132;28;20230;-48
2022/04/23 21:58:12;;;;;;;2.40;2.05;;;;;;;20.78;37.23;95657.13;10322262;28;20077;-48
2022/04/23 22:03:31;;;;;;;3.13;2.28;;;;;;;20.75;37.20;95645.09;10323969;28;20449;-48
2022/04/23 22:08:51;;;;;;;3.17;2.22;;;;;;;20.74;37.14;95640.84;10325563;28;20049;-51
2022/04/23 22:14:10;;;;;;;3.90;2.30;;;;;;;20.72;37.10;95629.59;10327317;28;20414;-49
2022/04/23 22:19:29;;;;;;;2.65;2.20;;;;;;;20.72;37.13;95633.06;10327421;28;20065;-50
2022/04/23 22:24:49;;;;;;;3.25;2.30;;;;;;;20.70;37.04;95615.63;10327201;28;20046;-48
2022/04/23 22:30:09;;;;;;;2.40;2.20;;;;;;;20.68;36.98;95617.88;10337185;28;20040;-49
2022/04/23 22:35:28;;;;;;;2.38;2.10;;;;;;;20.66;37.04;95607.44;10329507;28;20050;-49
2022/04/23 22:40:48;;;;;;;2.72;1.98;;;;;;;20.65;36.95;95603.16;10329967;28;20485;-48
2022/04/23 22:46:08;;;;;;;2.15;1.95;;;;;;;20.64;37.07;95601.63;10348211;28;20104;-48
2022/04/23 22:51:27;;;;;;;4.05;2.40;;;;;;;20.63;37.01;95612.78;10305930;28;20106;-49
2022/04/23 22:56:48;;;;;;;3.53;1.95;;;;;;;20.62;37.00;95601.19;10331519;28;20081;-49
2022/04/23 23:02:07;;;;;;;2.63;2.00;;;;;;;20.60;37.02;95595.38;10333153;28;20100;-50
2022/04/23 23:07:27;;;;;;;3.08;2.10;;;;;;;20.58;37.10;95586.00;10305848;28;20059;-51
2022/04/23 23:12:46;;;;;;;2.25;2.00;;;;;;;20.57;37.10;95585.22;10309046;28;20100;-49
2022/04/23 23:18:06;;;;;;;2.05;1.85;;;;;;;20.56;37.02;95575.53;10324905;28;20054;-51
2022/04/23 23:23:25;;;;;;;2.63;1.90;;;;;;;20.54;37.17;95567.78;10332834;28;20412;-51
2022/04/23 23:28:44;;;;;;;2.22;1.90;;;;;;;20.53;37.15;95560.03;10330501;28;20113;-48
2022/04/23 23:34:04;;;;;;;2.20;2.00;;;;;;;20.52;37.23;95555.75;10331849;28;20050;-49
2022/04/23 23:39:24;;;;;;;2.42;2.10;;;;;;;20.51;37.12;95556.91;10327632;28;20432;-48
2022/04/23 23:44:43;;;;;;;3.53;2.03;;;;;;;20.49;37.11;95551.06;10327367;28;20508;-49
2022/04/23 23:50:04;;;;;;;3.97;2.05;;;;;;;20.49;37.13;95551.06;10326055;28;20054;-49
2022/04/23 23:55:23;;;;;;;2.88;2.25;;;;;;;20.47;37.08;95546.00;10341055;28;20050;-48
